Time;durP1;ratioP1;P1;durP2;ratioP2;P2;SDS_P1;SDS_P2;PMS_P1;PMS_P2;Temp;Humidity;BMP_temperature;BMP_pressure;BME280_temperature;BME280_humidity;BME280_pressure;Samples;Min_cycle;Max_cycle;Signal;HPM_P1;HPM_P2
2021/09/27 00:00:16;;;;;;;9.13;3.33;;;16.70;99.90;;;;;;5110255;27;20367;-68
2021/09/27 00:02:42;;;;;;;6.60;2.70;;;16.80;99.90;;;;;;5115267;27;20031;-69
2021/09/27 00:05:12;;;;;;;9.85;3.53;;;16.90;99.90;;;;;;5116995;27;20027;-68
2021/09/27 00:07:39;;;;;;;6.90;2.13;;;16.90;99.90;;;;;;5120722;27;20051;-68
2021/09/27 00:10:06;;;;;;;9.02;3.40;;;16.90;99.90;;;;;;5109810;28;20039;-68
2021/09/27 00:12:32;;;;;;;8.07;3.08;;;16.90;99.90;;;;;;5119630;27;20046;-68
2021/09/27 00:14:57;;;;;;;8.20;2.58;;;16.80;99.90;;;;;;5114357;27;20114;-68
2021/09/27 00:17:23;;;;;;;10.35;3.25;;;16.90;99.90;;;;;;5113123;27;20359;-68
2021/09/27 00:19:48;;;;;;;9.52;2.85;;;16.90;99.90;;;;;;5125324;27;20023;-68
2021/09/27 00:22:15;;;;;;;7.40;3.05;;;16.90;99.90;;;;;;5117605;27;20019;-68
2021/09/27 00:24:40;;;;;;;7.82;2.75;;;16.80;99.90;;;;;;5118487;27;20150;-68
2021/09/27 00:27:06;;;;;;;6.13;2.38;;;16.80;99.90;;;;;;5116387;27;20031;-68
2021/09/27 00:29:32;;;;;;;8.85;2.75;;;16.70;99.90;;;;;;5115865;27;20016;-68
2021/09/27 00:31:57;;;;;;;10.18;2.88;;;16.70;99.90;;;;;;5116788;27;20025;-68
2021/09/27 00:34:23;;;;;;;7.38;2.72;;;16.70;99.90;;;;;;5114991;27;20081;-68
2021/09/27 00:36:49;;;;;;;7.93;2.83;;;16.70;99.90;;;;;;5117947;27;20530;-67
2021/09/27 00:39:14;;;;;;;10.05;3.28;;;16.60;99.90;;;;;;5115271;27;20031;-67
2021/09/27 00:41:40;;;;;;;7.63;2.58;;;16.60;99.90;;;;;;5116790;27;20023;-68
2021/09/27 00:44:06;;;;;;;8.25;3.15;;;16.60;99.90;;;;;;5113060;27;20016;-68
2021/09/27 00:46:32;;;;;;;6.32;2.65;;;16.60;99.90;;;;;;5122365;27;20028;-69
2021/09/27 00:49:00;;;;;;;7.40;2.97;;;16.60;99.90;;;;;;5115824;27;20038;-68
2021/09/27 00:51:31;;;;;;;7.45;2.92;;;16.50;99.90;;;;;;5118751;27;20053;-67
2021/09/27 00:54:21;;;;;;;9.52;3.15;;;16.50;99.90;;;;;;5117235;27;20034;-67
2021/09/27 00:56:55;;;;;;;;;;;16.50;99.90;;;;;;5121962;27;20024;-67
2021/09/27 00:59:24;;;;;;;8.77;3.60;;;16.30;99.90;;;;;;5117253;27;20299;-68
2021/09/27 01:01:51;;;;;;;6.82;2.50;;;16.30;99.90;;;;;;5118545;27;20027;-68
2021/09/27 01:04:18;;;;;;;8.07;2.40;;;16.30;99.90;;;;;;5115824;27;20019;-68
2021/09/27 01:06:43;;;;;;;6.53;2.50;;;16.30;99.90;;;;;;5107832;28;20035;-68
2021/09/27 01:09:14;;;;;;;7.85;2.88;;;16.30;99.90;;;;;;5111657;27;20032;-67
2021/09/27 01:12:01;;;;;;;10.40;3.00;;;16.20;99.90;;;;;;5109408;28;20379;-67
2021/09/27 01:14:46;;;;;;;6.95;2.65;;;16.10;99.90;;;;;;5113856;27;20024;-67
2021/09/27 01:17:32;;;;;;;6.65;2.72;;;16.10;99.90;;;;;;5115941;27;20034;-67
2021/09/27 01:20:31;;;;;;;7.22;2.88;;;16.10;99.90;;;;;;5120702;27;20019;-67
2021/09/27 01:23:51;;;;;;;8.55;3.42;;;16.00;99.90;;;;;;5112640;27;20142;-68
2021/09/27 01:26:32;;;;;;;;;;;15.90;99.90;;;;;;5044380;28;20055;-68
2021/09/27 01:29:32;;;;;;;9.43;2.88;;;15.80;99.90;;;;;;5110952;27;19903;-68
2021/09/27 01:32:16;;;;;;;9.77;2.72;;;15.80;99.90;;;;;;5102778;27;20372;-68
2021/09/27 01:34:52;;;;;;;8.65;3.60;;;15.70;99.90;;;;;;5111121;27;20023;-67
2021/09/27 01:37:31;;;;;;;6.00;2.17;;;15.80;99.90;;;;;;5115525;27;20043;-67
2021/09/27 01:40:05;;;;;;;10.60;3.15;;;15.80;99.90;;;;;;5115074;27;20035;-68
2021/09/27 01:42:44;;;;;;;8.23;3.13;;;15.80;99.90;;;;;;5112185;28;20027;-67
2021/09/27 01:45:18;;;;;;;11.73;3.47;;;15.80;99.90;;;;;;5112075;28;20569;-68
2021/09/27 01:48:13;;;;;;;7.88;2.40;;;15.70;99.90;;;;;;5121967;27;20023;-68
2021/09/27 01:50:53;;;;;;;5.00;2.30;;;15.70;99.90;;;;;;5113864;28;20061;-68
2021/09/27 01:53:28;;;;;;;6.20;2.58;;;15.70;99.90;;;;;;5121570;28;20537;-69
2021/09/27 01:56:20;;;;;;;7.85;2.80;;;15.80;99.90;;;;;;5117479;28;20085;-68
2021/09/27 01:59:04;;;;;;;6.20;2.38;;;15.80;99.90;;;;;;5105041;27;20034;-67
2021/09/27 02:01:47;;;;;;;11.55;3.58;;;15.80;99.90;;;;;;5121046;27;20425;-68
2021/09/27 02:04:30;;;;;;;5.85;2.70;;;15.90;99.90;;;;;;5120412;27;20076;-67
2021/09/27 02:06:58;;;;;;;7.43;2.83;;;15.80;99.90;;;;;;5120481;27;20051;-67
2021/09/27 02:09:36;;;;;;;5.80;2.17;;;15.90;99.90;;;;;;5111973;27;20166;-68
2021/09/27 02:12:07;;;;;;;6.75;2.97;;;16.00;99.90;;;;;;5115934;27;20115;-68
2021/09/27 02:15:10;;;;;;;8.48;3.22;;;15.90;99.90;;;;;;5116285;27;20027;-69
2021/09/27 02:18:01;;;;;;;6.43;2.30;;;16.00;99.90;;;;;;5115349;27;20071;-68
2021/09/27 02:20:31;;;;;;;6.40;2.30;;;16.10;99.90;;;;;;5118592;27;20098;-68
2021/09/27 02:23:11;;;;;;;7.50;3.45;;;16.10;99.90;;;;;;5117066;27;20374;-68
2021/09/27 02:25:39;;;;;;;9.77;3.42;;;16.10;99.90;;;;;;5119697;27;20020;-67
2021/09/27 02:28:08;;;;;;;6.78;2.33;;;16.10;99.90;;;;;;5122939;27;20072;-67
2021/09/27 02:30:58;;;;;;;8.10;2.83;;;16.00;99.90;;;;;;5121720;27;20023;-68
2021/09/27 02:33:34;;;;;;;7.70;2.80;;;15.90;99.90;;;;;;5122485;27;20032;-67
2021/09/27 02:36:17;;;;;;;8.43;3.25;;;15.80;99.90;;;;;;5119661;27;20479;-68
2021/09/27 02:39:01;;;;;;;7.63;3.00;;;15.80;99.90;;;;;;5115487;27;20514;-68
2021/09/27 02:41:33;;;;;;;7.78;3.28;;;15.80;99.90;;;;;;5122279;27;20023;-68
2021/09/27 02:43:59;;;;;;;7.25;2.65;;;15.70;99.90;;;;;;5121515;27;20068;-68
2021/09/27 02:46:25;;;;;;;9.32;2.95;;;15.70;99.90;;;;;;5115976;27;20031;-68
2021/09/27 02:48:58;;;;;;;7.60;2.80;;;15.70;99.90;;;;;;5117147;27;20379;-67
2021/09/27 02:51:26;;;;;;;6.70;2.80;;;15.60;99.90;;;;;;5110909;27;20043;-67
2021/09/27 02:53:53;;;;;;;9.55;3.22;;;15.70;99.90;;;;;;5127482;27;20042;-68
2021/09/27 02:57:02;;;;;;;7.10;2.90;;;15.70;99.90;;;;;;5114606;27;20034;-68
2021/09/27 02:59:50;;;;;;;9.55;3.53;;;15.60;99.90;;;;;;5117981;27;20038;-68
2021/09/27 03:02:29;;;;;;;8.55;2.90;;;15.60;99.90;;;;;;5119969;27;20474;-68
2021/09/27 03:05:39;;;;;;;8.55;2.65;;;15.50;99.90;;;;;;5121796;27;20051;-68
2021/09/27 03:08:04;;;;;;;;;;;15.50;99.90;;;;;;5102185;27;20131;-68
2021/09/27 03:10:58;;;;;;;6.20;2.85;;;15.50;99.90;;;;;;5115059;27;19994;-68
2021/09/27 03:13:28;;;;;;;7.60;3.00;;;15.60;99.90;;;;;;5110802;27;20031;-68
2021/09/27 03:16:13;;;;;;;5.43;2.15;;;15.80;99.90;;;;;;5118699;27;20032;-68
2021/09/27 03:18:48;;;;;;;7.07;2.90;;;15.90;99.90;;;;;;5123140;27;20020;-68
2021/09/27 03:21:31;;;;;;;6.28;2.63;;;16.00;99.90;;;;;;5123591;27;20020;-68
2021/09/27 03:24:27;;;;;;;9.23;2.83;;;16.10;99.90;;;;;;5126789;27;20015;-68
2021/09/27 03:27:06;;;;;;;5.93;2.47;;;16.20;99.90;;;;;;5119376;27;20024;-68
2021/09/27 03:29:43;;;;;;;7.38;2.60;;;16.20;99.90;;;;;;5116290;27;20410;-69
2021/09/27 03:32:38;;;;;;;6.43;3.05;;;16.20;99.90;;;;;;5114085;27;20024;-68
2021/09/27 03:35:16;;;;;;;6.03;2.47;;;16.20;99.90;;;;;;5119049;27;20023;-68
2021/09/27 03:38:06;;;;;;;7.53;2.72;;;16.30;99.90;;;;;;5114351;27;20089;-68
2021/09/27 03:40:52;;;;;;;8.40;2.92;;;16.20;99.90;;;;;;5114081;27;20523;-68
2021/09/27 03:43:24;;;;;;;7.55;2.17;;;16.20;99.90;;;;;;5126216;27;20038;-68
2021/09/27 03:46:08;;;;;;;6.53;2.75;;;16.20;99.90;;;;;;5117868;27;20080;-68
2021/09/27 03:48:34;;;;;;;8.52;2.67;;;16.10;99.90;;;;;;5119620;27;20027;-68
2021/09/27 03:51:12;;;;;;;7.22;3.17;;;16.10;99.90;;;;;;5120746;27;20026;-68
2021/09/27 03:53:56;;;;;;;7.88;2.60;;;16.00;99.90;;;;;;5116132;27;20035;-68
2021/09/27 03:56:33;;;;;;;6.25;2.45;;;16.10;99.90;;;;;;5110020;27;20074;-68
2021/09/27 03:59:02;;;;;;;7.85;2.95;;;16.00;99.90;;;;;;5110369;28;20050;-68
2021/09/27 04:01:52;;;;;;;6.80;2.20;;;16.00;99.90;;;;;;5120044;27;20394;-69
2021/09/27 04:04:50;;;;;;;9.82;2.80;;;16.00;99.90;;;;;;5118014;27;20512;-68
2021/09/27 04:07:35;;;;;;;9.88;3.38;;;15.90;99.90;;;;;;5113750;27;20110;-68
2021/09/27 04:10:17;;;;;;;8.25;2.72;;;15.70;99.90;;;;;;5117762;27;20055;-68
2021/09/27 04:13:28;;;;;;;6.30;2.50;;;15.60;99.90;;;;;;5109888;27;20380;-68
2021/09/27 04:16:21;;;;;;;9.07;2.97;;;15.50;99.90;;;;;;5112234;27;20116;-68
2021/09/27 04:19:17;;;;;;;6.45;2.10;;;15.40;99.90;;;;;;5122259;27;20060;-68
2021/09/27 04:21:59;;;;;;;10.68;3.60;;;15.30;99.90;;;;;;5109629;27;20034;-68
2021/09/27 04:24:54;;;;;;;6.90;2.50;;;15.30;99.90;;;;;;5125589;27;20027;-68
2021/09/27 04:27:55;;;;;;;8.07;2.88;;;15.40;99.90;;;;;;5099617;28;20118;-68
2021/09/27 04:30:25;;;;;;;5.38;2.38;;;15.50;99.90;;;;;;5043417;28;20017;-68
2021/09/27 04:33:28;;;;;;;4.97;2.22;;;15.50;99.90;;;;;;5101526;27;21018;-68
2021/09/27 04:36:16;;;;;;;5.85;2.60;;;15.50;99.90;;;;;;5116233;27;20126;-68
2021/09/27 04:38:42;;;;;;;7.22;2.78;;;15.60;99.90;;;;;;5116332;27;20039;-72
2021/09/27 04:41:32;;;;;;;9.07;2.97;;;15.50;99.90;;;;;;5108090;27;20019;-68
2021/09/27 04:44:27;;;;;;;5.13;2.28;;;15.60;99.90;;;;;;5116478;27;20016;-68
2021/09/27 04:47:08;;;;;;;8.30;2.90;;;15.50;99.90;;;;;;5120517;27;20023;-68
2021/09/27 04:49:56;;;;;;;8.68;3.08;;;15.50;99.90;;;;;;5114655;27;20045;-68
2021/09/27 04:52:37;;;;;;;4.72;1.75;;;15.50;99.90;;;;;;5122176;27;20397;-68
2021/09/27 04:55:26;;;;;;;5.35;2.38;;;15.60;99.90;;;;;;5119346;27;20015;-68
2021/09/27 04:58:15;;;;;;;5.28;1.63;;;15.60;99.90;;;;;;5108047;28;20541;-69
2021/09/27 05:00:49;;;;;;;8.23;3.38;;;15.60;99.90;;;;;;5118488;27;20094;-68
2021/09/27 05:03:45;;;;;;;5.95;2.95;;;15.50;99.90;;;;;;5111858;27;20032;-68
2021/09/27 05:06:20;;;;;;;8.85;3.33;;;15.50;99.90;;;;;;5124324;27;20086;-68
2021/09/27 05:09:23;;;;;;;4.75;2.03;;;15.50;99.90;;;;;;5112164;27;20027;-68
2021/09/27 05:12:08;;;;;;;6.45;2.50;;;15.60;99.90;;;;;;5109251;27;20386;-68
2021/09/27 05:15:01;;;;;;;6.53;2.38;;;15.50;99.90;;;;;;5116275;27;20027;-68
2021/09/27 05:17:45;;;;;;;7.43;2.80;;;15.50;99.90;;;;;;5112207;27;20035;-68
2021/09/27 05:20:19;;;;;;;9.07;3.47;;;15.50;99.90;;;;;;5114587;27;20031;-68
2021/09/27 05:22:53;;;;;;;4.43;1.98;;;15.50;99.90;;;;;;5116471;27;20404;-69
2021/09/27 05:25:34;;;;;;;7.35;3.28;;;15.50;99.90;;;;;;5112485;27;20031;-68
2021/09/27 05:28:02;;;;;;;;;;;15.50;99.90;;;;;;5111601;27;20020;-67
2021/09/27 05:30:59;;;;;;;7.65;1.98;;;15.50;99.90;;;;;;5112485;27;19914;-68
2021/09/27 05:33:59;;;;;;;6.35;2.33;;;15.50;99.90;;;;;;5095465;27;20088;-68
2021/09/27 05:36:56;;;;;;;8.10;2.95;;;15.60;99.90;;;;;;5114720;27;20515;-68
2021/09/27 05:39:43;;;;;;;4.47;1.75;;;15.50;99.90;;;;;;5115692;27;20032;-68
2021/09/27 05:42:18;;;;;;;5.95;2.08;;;15.50;99.90;;;;;;5118762;27;20090;-68
2021/09/27 05:44:59;;;;;;;3.58;1.83;;;15.60;99.90;;;;;;5121495;27;20030;-68
2021/09/27 05:47:57;;;;;;;7.82;2.63;;;15.60;99.90;;;;;;5116066;27;20115;-68
2021/09/27 05:51:12;;;;;;;7.63;3.10;;;15.60;99.90;;;;;;5089507;27;20092;-68
2021/09/27 05:54:08;;;;;;;7.53;2.65;;;15.60;99.90;;;;;;5061757;28;20075;-68
2021/09/27 05:56:34;;;;;;;8.98;3.50;;;15.60;99.90;;;;;;5060211;28;20027;-68
2021/09/27 05:59:17;;;;;;;7.25;1.98;;;15.60;99.90;;;;;;5096539;28;20106;-68
2021/09/27 06:01:46;;;;;;;8.13;2.50;;;15.60;99.90;;;;;;5119095;28;20428;-68
2021/09/27 06:04:26;;;;;;;3.97;1.75;;;15.60;99.90;;;;;;5116935;27;20023;-68
2021/09/27 06:07:35;;;;;;;7.18;3.17;;;15.60;99.90;;;;;;5117606;27;20065;-68
2021/09/27 06:10:12;;;;;;;6.50;2.30;;;15.60;99.90;;;;;;5073671;28;20082;-68
2021/09/27 06:13:06;;;;;;;7.65;2.65;;;15.60;99.90;;;;;;5116310;28;20023;-68
2021/09/27 06:15:58;;;;;;;8.40;2.72;;;15.60;99.90;;;;;;5107879;28;20127;-67
2021/09/27 06:18:48;;;;;;;7.35;2.95;;;15.70;99.90;;;;;;5131710;27;20129;-68
2021/09/27 06:21:25;;;;;;;5.10;2.08;;;15.70;99.90;;;;;;5111012;28;20034;-67
2021/09/27 06:24:02;;;;;;;7.00;2.55;;;15.70;99.90;;;;;;5118173;27;20052;-66
2021/09/27 06:26:36;;;;;;;9.98;2.78;;;15.70;99.90;;;;;;5121189;28;20031;-66
2021/09/27 06:29:07;;;;;;;10.23;3.35;;;15.80;99.90;;;;;;5122444;28;20031;-67
2021/09/27 06:31:42;;;;;;;5.90;2.50;;;15.90;99.90;;;;;;5120769;28;20027;-67
2021/09/27 06:34:22;;;;;;;5.13;2.08;;;15.90;99.90;;;;;;5123433;28;20027;-68
2021/09/27 06:36:49;;;;;;;8.18;2.55;;;16.00;99.90;;;;;;5121732;28;20019;-67
2021/09/27 06:39:21;;;;;;;8.88;3.08;;;16.10;99.90;;;;;;5120754;28;20517;-67
2021/09/27 06:41:50;;;;;;;6.10;2.05;;;16.10;99.90;;;;;;5116420;28;20398;-68
2021/09/27 06:44:16;;;;;;;8.32;3.17;;;16.20;99.90;;;;;;5116968;27;20019;-69
2021/09/27 06:46:43;;;;;;;5.20;2.42;;;16.30;99.90;;;;;;5124238;27;20023;-67
2021/09/27 06:49:09;;;;;;;7.93;2.97;;;16.30;99.90;;;;;;5121908;27;20019;-67
2021/09/27 06:51:41;;;;;;;6.90;2.90;;;16.40;99.90;;;;;;5120723;27;20091;-66
2021/09/27 06:54:08;;;;;;;8.98;3.20;;;16.40;99.90;;;;;;5121602;27;20523;-67
2021/09/27 06:56:35;;;;;;;6.18;2.47;;;16.50;99.90;;;;;;5117459;27;20690;-66
2021/09/27 06:59:01;;;;;;;9.25;2.78;;;16.50;99.90;;;;;;5121092;27;20026;-67
2021/09/27 07:01:26;;;;;;;8.45;2.72;;;16.60;99.90;;;;;;5120394;27;20028;-67
2021/09/27 07:03:52;;;;;;;8.75;3.22;;;16.60;99.90;;;;;;5112456;27;20030;-68
2021/09/27 07:06:18;;;;;;;7.20;2.88;;;16.70;99.90;;;;;;5111090;27;20636;-67
2021/09/27 07:08:43;;;;;;;6.88;2.88;;;16.70;99.90;;;;;;5114834;27;20039;-68
2021/09/27 07:11:09;;;;;;;10.20;2.35;;;16.80;99.90;;;;;;5112173;27;20114;-67
2021/09/27 07:13:34;;;;;;;7.30;2.47;;;16.90;99.90;;;;;;5120433;27;20035;-68
2021/09/27 07:16:00;;;;;;;8.23;3.08;;;17.00;99.90;;;;;;5123159;27;20024;-67
2021/09/27 07:18:26;;;;;;;6.38;2.35;;;17.00;99.90;;;;;;5118338;27;20034;-67
2021/09/27 07:20:51;;;;;;;4.43;1.77;;;17.10;99.90;;;;;;5112301;27;20560;-67
2021/09/27 07:23:17;;;;;;;7.55;2.88;;;17.10;99.90;;;;;;5121119;27;20011;-67
2021/09/27 07:25:43;;;;;;;8.75;2.03;;;17.10;99.90;;;;;;5120570;27;20037;-67
2021/09/27 07:28:09;;;;;;;5.97;2.28;;;17.20;99.90;;;;;;5119477;27;20483;-67
2021/09/27 07:30:36;;;;;;;6.45;2.00;;;17.20;99.90;;;;;;5114674;27;20111;-67
2021/09/27 07:33:03;;;;;;;7.60;2.75;;;17.20;99.90;;;;;;5113783;27;20075;-66
2021/09/27 07:35:30;;;;;;;8.05;2.38;;;17.20;99.90;;;;;;5121388;27;20027;-68
2021/09/27 07:37:57;;;;;;;5.75;2.20;;;17.30;99.90;;;;;;5121584;27;20115;-67
2021/09/27 07:40:25;;;;;;;8.32;2.90;;;17.40;99.90;;;;;;5114576;27;20352;-67
2021/09/27 07:42:51;;;;;;;4.63;1.83;;;17.50;99.90;;;;;;5112184;27;20012;-67
2021/09/27 07:45:20;;;;;;;3.97;1.67;;;17.70;99.90;;;;;;5118979;27;20027;-67
2021/09/27 07:47:46;;;;;;;4.38;1.52;;;17.70;99.90;;;;;;5112579;27;20023;-67
2021/09/27 07:50:13;;;;;;;6.40;2.22;;;17.80;99.90;;;;;;5113484;27;20031;-67
2021/09/27 07:52:39;;;;;;;7.13;2.47;;;17.90;99.90;;;;;;5116016;27;20039;-68
2021/09/27 07:55:06;;;;;;;8.63;2.33;;;18.00;99.90;;;;;;5109499;27;20027;-67
2021/09/27 07:57:32;;;;;;;7.88;2.00;;;18.20;99.90;;;;;;5112292;27;20475;-67
2021/09/27 07:59:58;;;;;;;6.68;2.00;;;18.20;99.90;;;;;;5116914;27;20068;-67
2021/09/27 08:02:28;;;;;;;8.45;2.55;;;18.30;99.90;;;;;;5117018;27;20016;-67
2021/09/27 08:04:55;;;;;;;7.38;2.17;;;18.50;99.90;;;;;;5118084;27;20019;-67
2021/09/27 08:07:21;;;;;;;8.45;3.05;;;18.60;99.90;;;;;;5119018;27;20047;-67
2021/09/27 08:09:47;;;;;;;4.30;1.60;;;18.80;99.90;;;;;;5116956;27;20165;-67
2021/09/27 08:12:13;;;;;;;6.63;2.28;;;18.80;99.90;;;;;;5112939;27;20079;-67
2021/09/27 08:14:39;;;;;;;4.28;1.75;;;18.90;99.90;;;;;;5114399;27;20024;-67
2021/09/27 08:17:05;;;;;;;4.60;1.73;;;19.00;99.90;;;;;;5108635;27;20034;-67
2021/09/27 08:19:31;;;;;;;6.57;2.55;;;19.30;99.90;;;;;;5120233;27;20029;-67
2021/09/27 08:21:57;;;;;;;5.78;2.35;;;19.60;99.90;;;;;;5110413;27;20164;-67
2021/09/27 08:24:23;;;;;;;10.48;2.72;;;19.80;99.90;;;;;;5122699;27;20161;-67
2021/09/27 08:26:49;;;;;;;4.57;2.00;;;19.80;99.90;;;;;;5121081;27;20039;-68
2021/09/27 08:29:15;;;;;;;5.28;2.28;;;19.50;99.90;;;;;;5112909;27;20054;-68
2021/09/27 08:31:41;;;;;;;6.85;2.25;;;19.30;99.90;;;;;;5113354;27;20050;-67
2021/09/27 08:34:08;;;;;;;7.13;2.35;;;19.10;99.90;;;;;;5111257;27;20024;-67
2021/09/27 08:36:34;;;;;;;3.55;1.35;;;19.30;99.90;;;;;;5115467;27;20084;-67
2021/09/27 08:39:00;;;;;;;3.75;1.58;;;20.10;99.90;;;;;;5111523;27;20032;-67
2021/09/27 08:41:51;;;;;;;6.38;2.25;;;20.70;99.90;;;;;;5118325;27;20020;-67
2021/09/27 08:44:41;;;;;;;4.32;1.75;;;21.00;99.90;;;;;;5118463;27;20422;-67
2021/09/27 08:47:26;;;;;;;3.80;1.58;;;20.80;99.90;;;;;;5118280;27;20019;-67
2021/09/27 08:50:00;;;;;;;5.53;1.88;;;20.50;99.90;;;;;;5120915;27;20031;-67
2021/09/27 08:52:30;;;;;;;5.68;1.92;;;21.10;99.90;;;;;;5112184;27;20043;-67
2021/09/27 08:54:57;;;;;;;5.95;1.77;;;21.80;99.90;;;;;;5115194;27;20355;-67
2021/09/27 08:57:46;;;;;;;5.18;1.88;;;22.30;99.90;;;;;;5114932;27;20026;-68
2021/09/27 09:00:31;;;;;;;6.05;2.17;;;22.70;99.90;;;;;;5109572;27;20051;-68
2021/09/27 09:03:10;;;;;;;6.53;1.95;;;22.10;99.90;;;;;;5115324;27;20015;-68
2021/09/27 09:05:44;;;;;;;5.07;1.63;;;21.70;99.90;;;;;;5115129;27;20045;-68
2021/09/27 09:08:33;;;;;;;6.95;2.17;;;21.90;99.90;;;;;;5114072;27;20050;-68
2021/09/27 09:11:17;;;;;;;4.30;1.63;;;22.00;99.90;;;;;;5113269;27;20478;-67
2021/09/27 09:13:49;;;;;;;5.40;1.98;;;21.40;99.90;;;;;;5117873;27;20085;-67
2021/09/27 09:16:18;;;;;;;5.47;1.92;;;21.30;99.90;;;;;;5114428;27;20430;-68
2021/09/27 09:18:48;;;;;;;7.05;2.25;;;21.20;99.90;;;;;;5126569;27;20024;-67
2021/09/27 09:21:24;;;;;;;4.82;1.60;;;21.00;99.90;;;;;;5123225;27;20369;-67
2021/09/27 09:23:56;;;;;;;4.85;1.73;;;21.00;99.90;;;;;;5118644;27;20026;-67
2021/09/27 09:26:32;;;;;;;5.82;2.08;;;21.80;99.90;;;;;;5112500;27;20031;-67
2021/09/27 09:28:58;;;;;;;2.47;0.88;;;22.50;99.90;;;;;;5116759;27;20023;-67
2021/09/27 09:31:40;;;;;;;5.78;1.88;;;23.30;99.90;;;;;;5120146;27;20011;-68
2021/09/27 09:34:17;;;;;;;6.95;2.05;;;23.50;99.90;;;;;;5107279;28;20103;-68
2021/09/27 09:36:46;;;;;;;5.10;1.80;;;24.10;99.90;;;;;;5109981;27;20028;-68
2021/09/27 09:39:37;;;;;;;6.40;1.90;;;24.30;99.90;;;;;;5114857;27;20062;-68
2021/09/27 09:42:15;;;;;;;2.58;1.20;;;24.00;99.90;;;;;;5108865;27;20035;-67
2021/09/27 09:44:46;;;;;;;4.50;1.60;;;23.70;99.90;;;;;;5112814;27;20038;-68
2021/09/27 09:47:20;;;;;;;4.63;1.58;;;23.80;99.90;;;;;;5112499;27;20475;-68
2021/09/27 09:49:59;;;;;;;4.38;1.60;;;24.30;99.90;;;;;;5124424;27;20359;-68
2021/09/27 09:52:32;;;;;;;4.97;1.90;;;24.20;99.90;;;;;;5116179;27;20028;-67
2021/09/27 09:54:59;;;;;;;2.28;0.90;;;23.80;99.90;;;;;;5117730;28;20459;-67
2021/09/27 09:57:37;;;;;;;3.40;1.33;;;23.90;99.90;;;;;;5114297;28;20031;-67
2021/09/27 10:00:15;;;;;;;3.13;1.17;;;23.30;99.90;;;;;;5113781;28;20065;-67
2021/09/27 10:02:43;;;;;;;3.88;1.27;;;23.60;99.90;;;;;;5109541;28;20028;-68
2021/09/27 10:05:22;;;;;;;4.85;1.38;;;23.90;99.90;;;;;;5118414;28;20408;-68
2021/09/27 10:07:56;;;;;;;6.63;1.90;;;25.10;99.90;;;;;;5121246;27;20047;-67
2021/09/27 10:10:31;;;;;;;2.13;1.00;;;25.40;99.90;;;;;;5114773;28;20130;-68
2021/09/27 10:12:59;;;;;;;4.03;1.00;;;26.00;99.90;;;;;;5118293;27;20421;-68
2021/09/27 10:15:34;;;;;;;1.67;0.82;;;26.30;99.90;;;;;;5115337;28;20119;-68
2021/09/27 10:18:22;;;;;;;4.07;1.23;;;25.40;99.90;;;;;;5119962;27;20445;-68
2021/09/27 10:21:18;;;;;;;3.88;1.40;;;23.80;99.90;;;;;;5121024;27;20090;-68
2021/09/27 10:23:54;;;;;;;4.32;1.45;;;22.90;99.90;;;;;;5117604;27;20561;-68
2021/09/27 10:26:26;;;;;;;5.97;1.40;;;22.50;99.90;;;;;;5116376;27;20110;-67
2021/09/27 10:28:54;;;;;;;5.25;1.83;;;22.40;99.90;;;;;;5126989;27;20207;-68
2021/09/27 10:31:23;;;;;;;3.13;1.10;;;22.70;99.90;;;;;;5126334;27;20474;-67
2021/09/27 10:33:54;;;;;;;3.13;1.05;;;23.00;99.90;;;;;;5129470;27;20397;-67
2021/09/27 10:36:42;;;;;;;2.17;0.98;;;23.50;99.90;;;;;;5115899;27;20055;-67
2021/09/27 10:39:11;;;;;;;4.22;1.35;;;24.50;99.90;;;;;;5110536;27;20028;-68
2021/09/27 10:41:55;;;;;;;3.70;1.27;;;24.40;99.90;;;;;;5119874;27;20027;-68
2021/09/27 10:44:34;;;;;;;2.65;1.10;;;24.30;99.90;;;;;;5123516;27;20451;-68
2021/09/27 10:47:30;;;;;;;4.47;1.27;;;25.20;99.90;;;;;;5118514;27;20603;-67
2021/09/27 10:50:13;;;;;;;3.22;1.10;;;25.50;99.90;;;;;;5114685;27;20463;-68
2021/09/27 10:52:42;;;;;;;3.72;1.17;;;25.00;99.90;;;;;;5116763;27;20535;-68
2021/09/27 10:55:13;;;;;;;2.78;1.15;;;24.40;99.90;;;;;;5114217;27;20082;-67
2021/09/27 10:58:04;;;;;;;4.70;1.10;;;23.90;99.90;;;;;;5124458;27;20028;-67
2021/09/27 11:00:33;;;;;;;4.50;1.40;;;24.70;99.90;;;;;;5108146;27;20126;-67
2021/09/27 11:03:21;;;;;;;3.30;1.40;;;25.60;99.90;;;;;;5123852;27;20023;-67
2021/09/27 11:05:57;;;;;;;9.63;1.50;;;25.70;99.90;;;;;;5117012;27;20035;-71
2021/09/27 11:08:59;;;;;;;2.70;0.90;;;25.70;99.90;;;;;;5116589;27;20054;-70
2021/09/27 11:11:28;;;;;;;2.97;1.10;;;25.40;99.90;;;;;;5055917;27;20070;-70
2021/09/27 11:14:16;;;;;;;3.97;1.25;;;25.00;99.90;;;;;;5114400;27;20386;-71
2021/09/27 11:16:46;;;;;;;2.80;1.00;;;24.50;99.90;;;;;;5117653;27;20539;-70
2021/09/27 11:19:37;;;;;;;2.78;1.00;;;24.40;99.90;;;;;;5116525;27;20988;-70
2021/09/27 11:22:43;;;;;;;3.50;1.13;;;24.90;99.90;;;;;;5115501;27;20714;-70
2021/09/27 11:25:33;;;;;;;3.20;1.05;;;24.60;99.90;;;;;;5126560;27;20071;-70
2021/09/27 11:28:14;;;;;;;2.47;1.05;;;24.10;99.90;;;;;;5114147;27;20023;-70
2021/09/27 11:31:04;;;;;;;2.90;1.13;;;23.60;99.90;;;;;;5134534;27;20028;-70
2021/09/27 11:33:30;;;;;;;3.75;1.33;;;23.10;99.90;;;;;;5112075;27;20016;-70
2021/09/27 11:36:23;;;;;;;3.22;1.20;;;22.50;99.90;;;;;;5111300;27;20042;-70
2021/09/27 11:38:51;;;;;;;3.60;1.00;;;22.30;99.90;;;;;;5116505;27;20035;-70
2021/09/27 11:41:16;;;;;;;3.15;1.20;;;22.40;99.90;;;;;;5119764;27;20011;-70
2021/09/27 11:44:06;;;;;;;2.17;0.80;;;22.50;99.90;;;;;;5125199;27;20934;-70
2021/09/27 11:46:46;;;;;;;;;;;22.40;99.90;;;;;;5115411;27;20068;-71
2021/09/27 11:49:38;;;;;;;3.87;1.23;;;22.80;99.90;;;;;;5121289;27;20014;-70
2021/09/27 11:52:35;;;;;;;2.67;0.88;;;22.90;99.90;;;;;;5116390;27;20031;-70
2021/09/27 11:55:06;;;;;;;2.03;0.80;;;23.30;99.90;;;;;;5124376;27;20046;-71
2021/09/27 11:57:38;;;;;;;3.13;1.17;;;23.80;99.90;;;;;;5117523;27;20027;-71
2021/09/27 12:00:16;;;;;;;2.42;0.90;;;23.10;99.90;;;;;;5125055;27;20065;-70
2021/09/27 12:03:00;;;;;;;1.83;0.93;;;22.50;99.90;;;;;;5127790;27;20046;-70
2021/09/27 12:05:50;;;;;;;2.95;1.13;;;22.40;99.90;;;;;;5120943;27;20019;-70
2021/09/27 12:08:35;;;;;;;2.85;1.10;;;22.40;99.90;;;;;;5123816;27;20047;-70
2021/09/27 12:11:08;;;;;;;2.55;1.08;;;22.20;99.90;;;;;;5121423;27;20559;-70
2021/09/27 12:13:55;;;;;;;4.47;1.55;;;22.20;99.90;;;;;;5117250;27;20038;-71
2021/09/27 12:16:25;;;;;;;3.28;1.00;;;22.60;99.90;;;;;;5120390;27;20035;-70
2021/09/27 12:18:54;;;;;;;2.63;1.10;;;22.60;99.90;;;;;;5119920;27;20023;-70
2021/09/27 12:21:43;;;;;;;3.60;1.13;;;22.20;99.90;;;;;;5111893;27;20053;-70
2021/09/27 12:24:13;;;;;;;2.63;0.98;;;21.60;99.90;;;;;;5113430;27;20046;-70
2021/09/27 12:26:42;;;;;;;2.53;0.90;;;21.60;99.90;;;;;;5107130;27;20020;-70
2021/09/27 12:29:15;;;;;;;4.40;1.30;;;21.40;99.90;;;;;;5112802;27;20034;-70
2021/09/27 12:31:59;;;;;;;4.40;1.63;;;21.40;99.90;;;;;;5109941;27;20031;-70
2021/09/27 12:34:32;;;;;;;3.13;1.15;;;21.40;99.90;;;;;;5109477;27;20024;-70
2021/09/27 12:36:57;;;;;;;3.67;1.13;;;21.50;99.90;;;;;;5121735;27;20023;-70
2021/09/27 12:39:25;;;;;;;3.35;1.27;;;21.60;99.90;;;;;;5119268;27;20395;-70
2021/09/27 12:41:53;;;;;;;3.22;1.30;;;21.60;99.90;;;;;;5112661;27;20031;-70
2021/09/27 12:44:27;;;;;;;3.83;1.17;;;21.60;99.90;;;;;;5114956;27;20023;-70
2021/09/27 12:46:55;;;;;;;3.47;1.40;;;21.80;99.90;;;;;;5118266;27;20387;-71
2021/09/27 12:49:53;;;;;;;2.45;0.93;;;21.90;99.90;;;;;;5117245;27;20521;-70
2021/09/27 12:52:34;;;;;;;3.03;1.20;;;21.90;99.90;;;;;;5115576;27;20407;-70
2021/09/27 12:55:01;;;;;;;4.47;1.20;;;21.90;99.90;;;;;;5118332;27;20108;-70
2021/09/27 12:57:34;;;;;;;3.50;1.15;;;22.00;99.90;;;;;;5117092;27;20466;-70
2021/09/27 13:00:00;;;;;;;3.60;1.13;;;22.20;99.90;;;;;;5119915;27;20022;-70
2021/09/27 13:02:34;;;;;;;4.10;1.20;;;22.20;99.90;;;;;;5108324;27;20020;-70
2021/09/27 13:05:05;;;;;;;2.15;0.93;;;22.10;99.90;;;;;;5116423;27;20027;-70
2021/09/27 13:07:40;;;;;;;2.25;0.98;;;21.80;99.90;;;;;;5117638;27;20055;-70
2021/09/27 13:10:16;;;;;;;2.22;1.00;;;21.80;99.90;;;;;;5114521;27;20060;-70
2021/09/27 13:12:57;;;;;;;2.20;1.00;;;21.70;99.90;;;;;;5115326;27;20027;-70
2021/09/27 13:15:30;;;;;;;2.08;1.00;;;21.80;99.90;;;;;;5114116;27;20042;-70
2021/09/27 13:18:01;;;;;;;3.05;1.20;;;21.70;99.90;;;;;;5114422;27;20019;-70
2021/09/27 13:20:59;;;;;;;3.15;1.17;;;21.60;99.90;;;;;;5111553;27;20023;-70
2021/09/27 13:23:40;;;;;;;2.67;1.05;;;21.80;99.90;;;;;;5116165;27;20023;-70
2021/09/27 13:26:19;;;;;;;2.15;0.90;;;22.10;99.90;;;;;;5119875;27;20023;-70
2021/09/27 13:28:51;;;;;;;4.70;1.17;;;22.00;99.90;;;;;;5120701;27;20026;-70
2021/09/27 13:31:20;;;;;;;5.05;1.30;;;21.60;99.90;;;;;;5119359;27;20031;-70
2021/09/27 13:33:49;;;;;;;2.27;1.03;;;21.70;99.90;;;;;;5114250;27;20526;-70
2021/09/27 13:36:27;;;;;;;2.60;1.00;;;21.60;99.90;;;;;;5108449;27;20495;-70
2021/09/27 13:39:03;;;;;;;3.83;1.23;;;21.60;99.90;;;;;;5117785;27;20059;-70